Time;durP1;ratioP1;P1;durP2;ratioP2;P2;SDS_P1;SDS_P2;PMS_P1;PMS_P2;Temp;Humidity;BMP_temperature;BMP_pressure;BME280_temperature;BME280_humidity;BME280_pressure;Samples;Min_cycle;Max_cycle;Signal;HPM_P1;HPM_P2
2021/10/19 04:00:49;;;;;;;21.03;16.53;;;9.90;99.90;;;;;;6219117;22;20806;-70
2021/10/19 04:03:16;;;;;;;21.47;17.83;;;9.90;99.90;;;;;;6247347;23;20418;-71
2021/10/19 04:05:43;;;;;;;18.40;15.57;;;9.90;99.90;;;;;;6247201;23;20476;-70
2021/10/19 04:08:09;;;;;;;18.00;16.07;;;10.00;99.90;;;;;;6247282;23;20411;-71
2021/10/19 04:10:36;;;;;;;18.37;16.30;;;10.00;99.90;;;;;;6246942;22;20962;-70
2021/10/19 04:13:03;;;;;;;18.20;16.40;;;10.10;99.90;;;;;;6247052;23;20918;-69
2021/10/19 04:15:30;;;;;;;17.87;16.07;;;10.10;99.90;;;;;;6247553;23;20411;-68
2021/10/19 04:17:58;;;;;;;16.40;14.80;;;10.10;99.90;;;;;;6247047;23;20417;-70
2021/10/19 04:20:25;;;;;;;18.03;16.23;;;10.10;99.90;;;;;;6246895;22;20780;-68
2021/10/19 04:22:52;;;;;;;18.73;16.60;;;10.20;99.90;;;;;;6247404;23;20418;-70
2021/10/19 04:25:19;;;;;;;17.80;16.00;;;10.20;99.90;;;;;;6247597;23;20415;-70
2021/10/19 04:27:46;;;;;;;20.07;17.90;;;10.20;99.90;;;;;;6246978;23;20414;-69
2021/10/19 04:30:14;;;;;;;18.43;16.70;;;10.20;99.90;;;;;;6246674;22;20871;-70
2021/10/19 04:32:41;;;;;;;17.23;15.70;;;10.30;99.90;;;;;;6247060;23;20413;-69
2021/10/19 04:35:09;;;;;;;20.07;18.07;;;10.30;99.90;;;;;;6247106;23;20395;-68
2021/10/19 04:37:36;;;;;;;19.23;17.23;;;10.30;99.90;;;;;;6247232;23;20465;-70
2021/10/19 04:40:04;;;;;;;19.43;17.37;;;10.20;99.90;;;;;;6247358;23;20474;-69
2021/10/19 04:42:33;;;;;;;18.17;16.30;;;10.10;99.90;;;;;;6247184;22;20431;-70
2021/10/19 04:45:00;;;;;;;19.20;17.10;;;10.10;99.90;;;;;;6247217;23;20502;-70
2021/10/19 04:47:27;;;;;;;19.60;15.97;;;10.10;99.90;;;;;;6247335;23;20410;-66
2021/10/19 04:49:55;;;;;;;17.37;15.53;;;10.10;99.90;;;;;;6246988;23;20414;-67
2021/10/19 04:52:23;;;;;;;17.97;16.13;;;10.20;99.90;;;;;;6247103;22;20442;-67
2021/10/19 04:54:49;;;;;;;17.93;16.00;;;10.20;99.90;;;;;;6247023;23;20395;-65
2021/10/19 04:57:16;;;;;;;17.83;16.13;;;10.10;99.90;;;;;;6247017;23;20427;-67
2021/10/19 04:59:43;;;;;;;17.03;15.33;;;10.20;99.90;;;;;;6247631;23;20395;-65
2021/10/19 05:02:09;;;;;;;17.23;15.43;;;10.20;99.90;;;;;;6246820;22;20435;-67
2021/10/19 05:04:36;;;;;;;16.17;14.50;;;10.10;99.90;;;;;;6248361;23;20414;-65
2021/10/19 05:07:03;;;;;;;18.17;15.40;;;10.20;99.90;;;;;;6248869;23;20892;-65
2021/10/19 05:09:32;;;;;;;22.03;16.87;;;10.10;99.90;;;;;;6258780;23;20499;-65
2021/10/19 05:11:59;;;;;;;17.50;15.80;;;10.20;99.90;;;;;;6248523;22;20446;-64
2021/10/19 05:14:26;;;;;;;17.53;14.70;;;10.30;99.90;;;;;;6248825;23;20737;-65
2021/10/19 05:16:53;;;;;;;17.30;14.90;;;10.40;99.90;;;;;;6249804;23;20415;-64
2021/10/19 05:19:19;;;;;;;17.37;15.57;;;10.50;99.90;;;;;;6248536;23;20806;-65
2021/10/19 05:21:46;;;;;;;19.70;15.70;;;10.50;99.90;;;;;;6248435;22;20430;-64
2021/10/19 05:24:13;;;;;;;16.67;14.97;;;10.50;99.90;;;;;;6248838;23;20721;-66
2021/10/19 05:26:41;;;;;;;16.90;15.20;;;10.50;99.90;;;;;;6249037;23;20415;-66
2021/10/19 05:29:08;;;;;;;16.23;14.53;;;10.40;99.90;;;;;;6249003;23;20411;-66
2021/10/19 05:31:34;;;;;;;17.23;15.57;;;10.50;99.90;;;;;;6248537;22;20439;-66
2021/10/19 05:34:01;;;;;;;18.37;14.90;;;10.50;99.90;;;;;;6249049;23;20418;-66
2021/10/19 05:36:28;;;;;;;16.30;14.60;;;10.50;99.90;;;;;;6248754;23;20418;-66
2021/10/19 05:38:55;;;;;;;16.77;15.27;;;10.50;99.90;;;;;;6248711;23;20411;-66
2021/10/19 05:41:22;;;;;;;15.80;14.20;;;10.50;99.90;;;;;;6248561;22;20975;-66
2021/10/19 05:43:50;;;;;;;13.90;12.50;;;10.50;99.90;;;;;;6248612;23;20419;-66
2021/10/19 05:46:16;;;;;;;16.07;14.37;;;10.60;99.90;;;;;;6248748;23;20410;-66
2021/10/19 05:48:43;;;;;;;14.90;13.50;;;10.60;99.90;;;;;;6248584;23;20411;-65
2021/10/19 05:51:10;;;;;;;15.50;14.10;;;10.60;99.90;;;;;;6248769;22;20434;-66
2021/10/19 05:53:37;;;;;;;16.63;14.93;;;10.60;99.90;;;;;;6248163;23;20737;-65
2021/10/19 05:56:03;;;;;;;17.30;14.50;;;10.70;99.90;;;;;;6248215;23;20418;-65
2021/10/19 05:58:30;;;;;;;16.87;15.00;;;10.60;99.90;;;;;;6248072;23;20921;-66
2021/10/19 06:00:58;;;;;;;16.23;14.20;;;10.70;99.90;;;;;;6248124;22;20495;-65
2021/10/19 06:03:25;;;;;;;16.17;14.60;;;10.60;99.90;;;;;;6247886;23;20899;-66
2021/10/19 06:05:52;;;;;;;17.83;15.43;;;10.60;99.90;;;;;;6249087;23;20417;-70
2021/10/19 06:08:18;;;;;;;16.37;14.77;;;10.60;99.90;;;;;;6247967;23;20417;-68
2021/10/19 06:10:45;;;;;;;16.80;14.50;;;10.50;99.90;;;;;;6248131;22;20430;-68
2021/10/19 06:13:12;;;;;;;16.37;14.73;;;10.50;99.90;;;;;;6248567;23;20411;-68
2021/10/19 06:15:40;;;;;;;15.47;13.97;;;10.60;99.90;;;;;;6247857;23;20395;-69
2021/10/19 06:18:08;;;;;;;16.13;14.40;;;10.60;99.90;;;;;;6248516;23;20493;-68
2021/10/19 06:20:35;;;;;;;19.43;17.60;;;10.70;99.90;;;;;;6248313;22;20427;-68
2021/10/19 06:23:02;;;;;;;14.23;12.90;;;10.70;99.90;;;;;;6248830;23;20415;-68
2021/10/19 06:25:29;;;;;;;15.93;14.23;;;10.70;99.90;;;;;;6248546;23;20418;-69
2021/10/19 06:27:56;;;;;;;15.53;13.93;;;10.70;99.90;;;;;;6248430;23;20454;-69
2021/10/19 06:30:22;;;;;;;17.27;15.63;;;10.70;99.90;;;;;;6247660;22;20912;-70
2021/10/19 06:32:49;;;;;;;32.53;14.90;;;10.70;99.90;;;;;;6248279;23;20518;-69
2021/10/19 06:35:17;;;;;;;15.83;14.23;;;10.60;99.90;;;;;;6247724;23;20418;-69
2021/10/19 06:37:44;;;;;;;16.87;15.10;;;10.60;99.90;;;;;;6248228;23;20410;-69
2021/10/19 06:40:11;;;;;;;16.60;14.90;;;10.60;99.90;;;;;;6248036;23;20422;-70
2021/10/19 06:42:38;;;;;;;19.00;15.97;;;10.60;99.90;;;;;;6248052;23;20406;-69
2021/10/19 06:45:06;;;;;;;17.50;14.10;;;10.60;99.90;;;;;;6248651;23;20793;-67
2021/10/19 06:47:33;;;;;;;16.33;14.77;;;10.70;99.90;;;;;;6248573;23;20398;-65
2021/10/19 06:50:00;;;;;;;17.30;15.20;;;10.70;99.90;;;;;;6248735;23;20746;-66
2021/10/19 06:52:28;;;;;;;15.97;14.13;;;10.70;99.90;;;;;;6248030;22;20565;-65
2021/10/19 06:54:57;;;;;;;18.63;15.43;;;10.70;99.90;;;;;;6250544;23;20411;-66
2021/10/19 06:57:23;;;;;;;16.27;14.57;;;10.80;99.90;;;;;;6251890;23;20417;-65
2021/10/19 06:59:50;;;;;;;21.20;14.03;;;10.90;99.90;;;;;;6247933;23;20411;-66
2021/10/19 07:02:17;;;;;;;18.30;15.67;;;10.90;99.90;;;;;;6248309;22;20434;-66
2021/10/19 07:04:44;;;;;;;17.27;15.50;;;11.00;99.90;;;;;;6247758;23;20891;-66
2021/10/19 07:07:11;;;;;;;17.43;15.70;;;11.00;99.90;;;;;;6247309;23;20421;-66
2021/10/19 07:09:39;;;;;;;18.10;15.63;;;11.10;99.90;;;;;;6247796;23;20411;-66
2021/10/19 07:12:06;;;;;;;17.20;15.60;;;11.20;99.90;;;;;;6247533;22;20434;-66
2021/10/19 07:14:33;;;;;;;16.47;14.93;;;11.20;99.90;;;;;;6248101;23;20411;-66
2021/10/19 07:16:59;;;;;;;14.87;13.30;;;11.20;99.90;;;;;;6248017;23;20403;-65
2021/10/19 07:19:26;;;;;;;17.63;14.10;;;11.20;99.90;;;;;;6247685;23;20411;-65
2021/10/19 07:21:53;;;;;;;15.30;13.80;;;11.10;99.90;;;;;;6247046;22;20957;-65
2021/10/19 07:24:20;;;;;;;13.77;12.40;;;11.40;99.90;;;;;;6247822;23;20418;-65
2021/10/19 07:26:48;;;;;;;12.87;11.73;;;11.70;99.90;;;;;;6247239;23;20418;-65
2021/10/19 07:29:14;;;;;;;13.87;12.60;;;12.00;99.90;;;;;;6247756;23;20415;-65
2021/10/19 07:31:41;;;;;;;15.43;13.43;;;12.00;99.90;;;;;;6247546;22;20435;-65
2021/10/19 07:34:09;;;;;;;13.90;12.60;;;12.20;99.90;;;;;;6247510;23;20407;-68
2021/10/19 07:36:35;;;;;;;13.50;12.13;;;12.50;99.90;;;;;;6247431;23;20417;-68
2021/10/19 07:39:02;;;;;;;14.67;13.27;;;12.70;99.90;;;;;;6247515;23;20402;-68
2021/10/19 07:41:29;;;;;;;14.10;12.60;;;12.70;99.90;;;;;;6247369;22;20427;-66
2021/10/19 07:43:57;;;;;;;13.93;12.73;;;12.60;99.90;;;;;;6247481;23;20416;-66
2021/10/19 07:46:23;;;;;;;13.80;11.73;;;12.80;99.90;;;;;;6247302;23;20741;-64
2021/10/19 07:48:50;;;;;;;12.53;11.33;;;12.90;99.90;;;;;;6248566;23;20411;-66
2021/10/19 07:51:17;;;;;;;13.00;11.70;;;13.10;99.90;;;;;;6247437;22;20431;-65
2021/10/19 07:53:44;;;;;;;11.53;10.63;;;13.30;99.90;;;;;;6248413;23;20410;-64
2021/10/19 07:56:11;;;;;;;12.90;11.50;;;13.40;99.90;;;;;;6250448;23;20441;-64
2021/10/19 07:58:38;;;;;;;13.17;11.97;;;13.50;99.90;;;;;;6247538;23;20420;-64
2021/10/19 08:01:06;;;;;;;14.40;13.03;;;13.60;99.90;;;;;;6247105;22;20445;-64
2021/10/19 08:03:33;;;;;;;13.27;12.07;;;13.60;99.90;;;;;;6247632;23;20422;-65
2021/10/19 08:06:00;;;;;;;14.43;13.03;;;13.70;99.90;;;;;;6247454;23;20415;-65
2021/10/19 08:08:26;;;;;;;12.97;11.70;;;13.70;99.90;;;;;;6247505;23;20417;-66
2021/10/19 08:10:53;;;;;;;14.37;12.97;;;13.70;99.90;;;;;;6247440;22;20434;-66
2021/10/19 08:13:20;;;;;;;14.00;12.40;;;13.60;99.90;;;;;;6246922;23;20954;-66
2021/10/19 08:15:47;;;;;;;15.60;13.50;;;13.60;99.90;;;;;;6247477;23;20395;-66
2021/10/19 08:18:15;;;;;;;14.63;13.13;;;13.60;99.90;;;;;;6247781;23;20411;-65
2021/10/19 08:20:42;;;;;;;16.50;14.87;;;13.50;99.90;;;;;;6247112;22;20431;-65
2021/10/19 08:23:09;;;;;;;15.40;14.00;;;13.20;99.90;;;;;;6247359;23;20411;-65
2021/10/19 08:25:37;;;;;;;15.40;13.80;;;13.20;99.90;;;;;;6247276;23;20417;-65
2021/10/19 08:28:05;;;;;;;16.97;14.73;;;13.10;99.90;;;;;;6247283;23;20464;-62
2021/10/19 08:30:32;;;;;;;17.37;14.47;;;13.10;99.90;;;;;;6247071;22;20410;-64
2021/10/19 08:32:59;;;;;;;15.97;14.37;;;13.10;99.90;;;;;;6257631;23;20943;-64
2021/10/19 08:35:27;;;;;;;14.80;13.40;;;13.00;99.90;;;;;;6247246;23;20469;-65
2021/10/19 08:37:54;;;;;;;15.93;14.43;;;13.00;99.90;;;;;;6247108;23;20910;-67
2021/10/19 08:40:22;;;;;;;18.13;16.40;;;12.80;99.90;;;;;;6250399;22;20417;-69
2021/10/19 08:42:51;;;;;;;17.40;15.70;;;12.50;99.90;;;;;;6250125;23;20880;-69
2021/10/19 08:45:19;;;;;;;20.60;17.53;;;12.30;99.90;;;;;;6250154;23;20401;-69
2021/10/19 08:47:48;;;;;;;16.00;14.50;;;12.00;99.90;;;;;;6250504;23;20410;-69
2021/10/19 08:50:18;;;;;;;19.10;16.30;;;11.90;99.90;;;;;;6250579;22;20410;-67
2021/10/19 08:52:47;;;;;;;18.73;16.73;;;11.70;99.90;;;;;;6250276;23;20418;-69
2021/10/19 08:55:14;;;;;;;18.90;16.90;;;11.50;99.90;;;;;;6250610;23;20395;-69
2021/10/19 08:57:41;;;;;;;17.63;16.03;;;11.50;99.90;;;;;;6250321;23;20402;-67
2021/10/19 09:00:10;;;;;;;19.03;17.17;;;11.50;99.90;;;;;;6250394;23;20417;-68
2021/10/19 09:02:38;;;;;;;17.60;15.80;;;11.50;99.90;;;;;;6251130;22;20947;-66
2021/10/19 09:05:07;;;;;;;20.37;16.00;;;11.50;99.90;;;;;;6251587;23;20410;-66
2021/10/19 09:07:34;;;;;;;17.43;15.00;;;11.50;99.90;;;;;;6251372;23;20411;-66
2021/10/19 09:10:13;;;;;;;16.90;15.30;;;11.60;99.90;;;;;;6250253;23;20946;-66
2021/10/19 09:12:50;;;;;;;16.90;15.10;;;11.70;99.90;;;;;;6250477;23;20418;-65
2021/10/19 09:15:22;;;;;;;16.30;14.77;;;11.70;99.90;;;;;;6250484;23;20417;-66
2021/10/19 09:17:48;;;;;;;20.50;15.60;;;11.90;99.90;;;;;;6250302;23;20399;-66
2021/10/19 09:20:17;;;;;;;15.80;14.33;;;11.90;99.90;;;;;;6250373;22;20418;-66
2021/10/19 09:22:58;;;;;;;16.20;14.50;;;12.00;99.90;;;;;;6250283;23;20868;-65
2021/10/19 09:25:29;;;;;;;19.47;12.83;;;12.10;99.90;;;;;;6250220;23;20891;-66
2021/10/19 09:27:56;;;;;;;16.13;13.60;;;12.20;99.90;;;;;;6251172;23;20405;-65
2021/10/19 09:30:40;;;;;;;12.60;11.30;;;12.20;99.90;;;;;;6250175;22;20411;-66
2021/10/19 09:33:08;;;;;;;16.77;12.50;;;12.20;99.90;;;;;;6250026;23;20958;-67
2021/10/19 09:35:35;;;;;;;12.50;11.20;;;12.30;99.90;;;;;;6250414;23;20417;-66
2021/10/19 09:38:06;;;;;;;12.83;11.50;;;12.40;99.90;;;;;;6250567;23;20413;-67
2021/10/19 09:40:36;;;;;;;12.33;11.13;;;12.50;99.90;;;;;;6250440;22;20445;-67
2021/10/19 09:43:05;;;;;;;19.83;11.70;;;12.60;99.90;;;;;;6251194;23;20721;-68
2021/10/19 09:45:33;;;;;;;12.87;11.60;;;12.70;99.90;;;;;;6250377;23;20740;-68
2021/10/19 09:48:00;;;;;;;15.43;11.57;;;12.90;99.90;;;;;;6249999;23;20926;-68
2021/10/19 09:50:29;;;;;;;13.53;12.13;;;12.90;99.90;;;;;;6248721;22;20414;-68
2021/10/19 09:52:56;;;;;;;14.77;12.07;;;13.00;99.90;;;;;;6248134;23;20942;-69
2021/10/19 09:55:24;;;;;;;12.60;11.40;;;13.20;99.90;;;;;;6248593;23;20422;-68
2021/10/19 09:57:53;;;;;;;12.50;11.20;;;13.30;99.90;;;;;;6248248;23;20917;-69
2021/10/19 10:00:22;;;;;;;20.33;11.83;;;13.40;99.90;;;;;;6248404;22;20411;-69
2021/10/19 10:02:49;;;;;;;12.67;10.50;;;13.40;99.90;;;;;;6248635;23;20391;-69
2021/10/19 10:05:16;;;;;;;12.00;10.90;;;13.40;99.90;;;;;;6248683;23;20418;-69
2021/10/19 10:07:46;;;;;;;11.20;10.10;;;13.40;99.90;;;;;;6248268;23;20497;-68
2021/10/19 10:10:15;;;;;;;10.67;9.50;;;13.60;99.90;;;;;;6247911;23;20418;-68
2021/10/19 10:12:45;;;;;;;11.00;10.00;;;13.60;99.90;;;;;;6248975;23;20431;-70
2021/10/19 10:15:24;;;;;;;14.03;10.90;;;13.60;99.90;;;;;;6248846;23;20457;-69
2021/10/19 10:17:56;;;;;;;10.87;9.10;;;13.70;99.90;;;;;;6248276;23;20706;-69
2021/10/19 10:20:31;;;;;;;10.50;9.30;;;13.90;99.90;;;;;;6248321;22;20417;-68
2021/10/19 10:22:58;;;;;;;11.90;9.47;;;14.10;99.90;;;;;;6248907;23;20391;-69
2021/10/19 10:25:25;;;;;;;13.07;10.13;;;14.10;99.90;;;;;;6248740;23;20411;-69
2021/10/19 10:27:53;;;;;;;10.47;9.37;;;14.20;99.90;;;;;;6248027;23;20415;-67
2021/10/19 10:30:23;;;;;;;8.90;8.00;;;14.30;99.90;;;;;;6247936;22;20450;-68
2021/10/19 10:32:52;;;;;;;8.17;7.47;;;14.40;99.90;;;;;;6247833;23;20435;-68
2021/10/19 10:35:19;;;;;;;10.50;8.37;;;14.50;99.90;;;;;;6247955;23;20439;-67
2021/10/19 10:37:50;;;;;;;8.40;6.67;;;14.60;99.90;;;;;;6247592;23;20472;-67
2021/10/19 10:40:27;;;;;;;6.70;6.00;;;14.80;99.90;;;;;;6247728;22;20395;-67
2021/10/19 10:42:55;;;;;;;7.20;6.50;;;14.90;99.90;;;;;;6247850;23;20483;-70
2021/10/19 10:45:32;;;;;;;7.17;6.47;;;15.00;99.90;;;;;;6248376;23;20414;-69
2021/10/19 10:48:01;;;;;;;6.83;6.23;;;15.10;99.90;;;;;;6248289;23;20395;-69
2021/10/19 10:50:28;;;;;;;6.70;5.00;;;15.20;99.90;;;;;;6247245;22;20891;-69
2021/10/19 10:53:00;;;;;;;6.03;5.43;;;15.20;99.90;;;;;;6248168;23;20454;-70
2021/10/19 10:55:28;;;;;;;7.80;5.43;;;15.30;99.90;;;;;;6247901;23;20464;-68
2021/10/19 10:57:54;;;;;;;5.83;5.10;;;15.30;99.90;;;;;;6247670;23;20419;-69
2021/10/19 11:00:26;;;;;;;5.50;5.00;;;15.40;99.90;;;;;;6247454;22;20465;-67
2021/10/19 11:03:07;;;;;;;5.70;5.20;;;15.40;99.90;;;;;;6247610;23;20399;-67
2021/10/19 11:05:36;;;;;;;5.43;4.97;;;15.30;99.90;;;;;;6247990;23;20395;-68
2021/10/19 11:08:04;;;;;;;5.87;4.63;;;15.30;99.90;;;;;;6247717;23;20415;-68
2021/10/19 11:10:30;;;;;;;5.10;4.60;;;15.30;99.90;;;;;;6247585;22;20740;-69
2021/10/19 11:13:01;;;;;;;5.00;4.60;;;15.30;99.90;;;;;;6247804;23;20761;-71
2021/10/19 11:15:30;;;;;;;5.80;5.20;;;15.30;99.90;;;;;;6247380;23;20718;-72
2021/10/19 11:17:57;;;;;;;7.40;5.27;;;15.20;99.90;;;;;;6247929;23;20445;-70
2021/10/19 11:20:26;;;;;;;6.03;5.10;;;15.20;99.90;;;;;;6247902;22;20421;-71
2021/10/19 11:22:53;;;;;;;5.50;5.03;;;15.20;99.90;;;;;;6248215;23;20454;-70
2021/10/19 11:25:21;;;;;;;5.60;5.10;;;15.10;99.90;;;;;;6247705;23;20411;-70
2021/10/19 11:27:50;;;;;;;5.50;4.87;;;15.20;99.90;;;;;;6247520;23;20904;-71
2021/10/19 11:30:17;;;;;;;5.13;4.73;;;15.10;99.90;;;;;;6247474;22;20418;-71
2021/10/19 11:32:45;;;;;;;4.60;4.27;;;15.10;99.90;;;;;;6247814;23;20466;-71
2021/10/19 11:35:12;;;;;;;7.53;4.50;;;14.90;99.90;;;;;;6247713;23;20411;-70
2021/10/19 11:37:39;;;;;;;5.90;5.37;;;15.00;99.90;;;;;;6247113;23;20913;-70
2021/10/19 11:40:09;;;;;;;4.90;4.50;;;15.00;99.90;;;;;;6247376;23;20442;-71
2021/10/19 11:42:45;;;;;;;4.20;4.00;;;15.10;99.90;;;;;;6247514;22;20430;-70
2021/10/19 11:45:12;;;;;;;4.33;4.03;;;15.20;99.90;;;;;;6247127;23;20410;-69
2021/10/19 11:47:46;;;;;;;4.00;3.80;;;15.30;99.90;;;;;;6247317;23;20411;-70
2021/10/19 11:50:16;;;;;;;4.30;4.00;;;15.50;99.90;;;;;;6247292;23;20399;-71
2021/10/19 11:52:43;;;;;;;5.30;3.90;;;15.60;99.90;;;;;;6246938;23;20434;-71
2021/10/19 11:55:10;;;;;;;4.90;4.40;;;15.70;99.90;;;;;;6247252;23;20395;-71
2021/10/19 11:57:38;;;;;;;4.70;4.30;;;15.80;99.90;;;;;;6246968;23;20415;-70
2021/10/19 12:00:08;;;;;;;4.73;4.33;;;15.90;99.90;;;;;;6247557;23;20410;-71
2021/10/19 12:02:34;;;;;;;4.60;4.30;;;15.80;99.90;;;;;;6246652;22;20442;-70
2021/10/19 12:05:08;;;;;;;4.40;4.10;;;15.90;99.90;;;;;;6247087;23;20410;-70
2021/10/19 12:07:34;;;;;;;4.83;4.23;;;15.90;99.90;;;;;;6247136;23;20720;-71
2021/10/19 12:10:11;;;;;;;4.13;3.87;;;15.90;99.90;;;;;;6247492;23;20411;-70
2021/10/19 12:12:38;;;;;;;5.43;4.13;;;15.80;99.90;;;;;;6246617;22;20431;-70
2021/10/19 12:15:06;;;;;;;4.83;4.53;;;15.80;99.90;;;;;;6246942;23;20418;-70
2021/10/19 12:17:33;;;;;;;4.60;4.20;;;15.90;99.90;;;;;;6247055;23;20418;-70
2021/10/19 12:20:02;;;;;;;5.53;5.03;;;15.90;99.90;;;;;;6247171;23;20724;-70
2021/10/19 12:22:35;;;;;;;5.47;5.00;;;15.80;99.90;;;;;;6256833;22;20453;-71
2021/10/19 12:25:04;;;;;;;5.33;3.83;;;15.70;99.90;;;;;;6246974;23;20395;-70
2021/10/19 12:27:31;;;;;;;4.40;4.07;;;15.70;99.90;;;;;;6246931;23;20474;-71
2021/10/19 12:29:57;;;;;;;4.50;4.20;;;15.70;99.90;;;;;;6247499;23;20774;-70
2021/10/19 12:32:33;;;;;;;7.47;4.00;;;15.80;99.90;;;;;;6247152;22;20430;-71
2021/10/19 12:35:00;;;;;;;3.97;3.67;;;15.90;99.90;;;;;;6247501;23;20398;-70
2021/10/19 12:37:34;;;;;;;4.60;4.20;;;15.90;99.90;;;;;;6247465;23;20411;-70
2021/10/19 12:40:02;;;;;;;3.83;3.63;;;16.00;99.90;;;;;;6246874;23;20395;-70
2021/10/19 12:42:29;;;;;;;3.80;3.50;;;16.10;99.90;;;;;;6246759;22;20431;-70
2021/10/19 12:44:56;;;;;;;4.67;4.20;;;16.00;99.90;;;;;;6247481;23;20414;-70
2021/10/19 12:47:22;;;;;;;4.07;3.83;;;16.10;99.90;;;;;;6247082;23;20888;-70
2021/10/19 12:49:49;;;;;;;4.07;3.80;;;16.30;99.90;;;;;;6247068;23;20418;-70
2021/10/19 12:52:16;;;;;;;4.87;4.47;;;16.40;99.90;;;;;;6246878;22;20437;-70
2021/10/19 12:54:44;;;;;;;4.13;3.73;;;16.60;99.90;;;;;;6247040;23;20434;-70
2021/10/19 12:57:14;;;;;;;4.73;4.30;;;16.80;99.90;;;;;;6246955;23;20740;-70
2021/10/19 12:59:41;;;;;;;5.83;4.63;;;16.90;99.90;;;;;;6246781;23;20469;-69
2021/10/19 13:02:08;;;;;;;5.30;4.80;;;17.10;99.90;;;;;;6247041;22;20442;-70
2021/10/19 13:04:35;;;;;;;4.80;4.40;;;17.20;99.90;;;;;;6247117;23;20895;-70
2021/10/19 13:07:03;;;;;;;4.87;4.47;;;17.30;99.90;;;;;;6247367;23;20410;-71
2021/10/19 13:09:30;;;;;;;5.33;4.93;;;17.40;99.90;;;;;;6247222;23;20786;-69
2021/10/19 13:11:58;;;;;;;5.23;4.43;;;17.50;99.90;;;;;;6246994;22;20431;-69
2021/10/19 13:14:25;;;;;;;4.23;3.83;;;17.60;99.90;;;;;;6247172;23;20419;-69
2021/10/19 13:16:52;;;;;;;5.90;4.90;;;17.60;99.90;;;;;;6246284;23;20406;-69
2021/10/19 13:19:18;;;;;;;5.80;4.33;;;17.60;99.90;;;;;;6246862;23;20411;-70
2021/10/19 13:21:46;;;;;;;5.10;4.70;;;17.60;99.90;;;;;;6246227;22;20526;-70
2021/10/19 13:24:13;;;;;;;5.03;4.73;;;17.70;99.90;;;;;;6246444;23;20413;-70
2021/10/19 13:26:40;;;;;;;4.77;4.27;;;17.80;99.90;;;;;;6247825;23;20791;-70
2021/10/19 13:29:09;;;;;;;4.50;4.20;;;17.80;99.90;;;;;;6248512;23;20411;-70
2021/10/19 13:31:37;;;;;;;5.03;4.50;;;17.90;99.90;;;;;;6248571;22;20488;-69
2021/10/19 13:34:06;;;;;;;5.33;4.87;;;18.00;99.90;;;;;;6248120;23;21025;-69
2021/10/19 13:36:32;;;;;;;4.67;4.27;;;18.00;99.90;;;;;;6248651;23;20395;-70
2021/10/19 13:38:59;;;;;;;5.10;4.60;;;18.00;99.90;;;;;;6248449;23;20738;-69
2021/10/19 13:41:26;;;;;;;3.93;3.63;;;18.00;99.90;;;;;;6248010;22;20437;-69
2021/10/19 13:43:52;;;;;;;4.43;4.03;;;18.00;99.90;;;;;;6248323;23;20411;-70
2021/10/19 13:46:20;;;;;;;4.90;4.50;;;18.00;99.90;;;;;;6248408;23;20411;-69
2021/10/19 13:48:47;;;;;;;4.13;3.83;;;17.90;99.90;;;;;;6248689;23;20410;-69
2021/10/19 13:51:15;;;;;;;4.97;4.57;;;17.90;99.90;;;;;;6248541;22;20435;-69
2021/10/19 13:53:41;;;;;;;4.57;4.27;;;17.90;99.90;;;;;;6248306;23;20441;-69
2021/10/19 13:56:08;;;;;;;4.40;3.87;;;18.00;99.90;;;;;;6264438;23;20415;-71
2021/10/19 13:58:35;;;;;;;4.43;4.00;;;18.00;99.90;;;;;;6248372;23;20425;-70
2021/10/19 14:01:02;;;;;;;4.83;4.40;;;18.10;99.90;;;;;;6247718;22;20445;-70
2021/10/19 14:03:30;;;;;;;4.73;4.27;;;18.00;99.90;;;;;;6248189;23;20709;-70
2021/10/19 14:05:56;;;;;;;4.17;3.87;;;18.00;99.90;;;;;;6248473;23;20402;-70
2021/10/19 14:08:23;;;;;;;4.47;4.13;;;18.00;99.90;;;;;;6248095;23;20434;-70
2021/10/19 14:10:50;;;;;;;4.80;4.40;;;17.90;99.90;;;;;;6248277;22;20431;-70
2021/10/19 14:13:17;;;;;;;4.70;4.30;;;17.90;99.90;;;;;;6248293;23;20414;-70
2021/10/19 14:15:44;;;;;;;4.63;4.33;;;17.80;99.90;;;;;;6248329;23;20415;-70
2021/10/19 14:18:10;;;;;;;5.83;4.40;;;17.80;99.90;;;;;;6248566;23;20498;-70
2021/10/19 14:20:38;;;;;;;5.20;4.90;;;17.80;99.90;;;;;;6248416;22;20453;-70
2021/10/19 14:23:05;;;;;;;5.47;4.90;;;17.80;99.90;;;;;;6248473;23;20411;-70
2021/10/19 14:25:32;;;;;;;11.23;4.93;;;17.80;99.90;;;;;;6248896;23;20860;-70
2021/10/19 14:28:06;;;;;;;4.40;3.93;;;17.70;99.90;;;;;;6248155;23;20922;-70
2021/10/19 14:30:33;;;;;;;9.50;5.07;;;17.70;99.90;;;;;;6248485;22;20399;-70
2021/10/19 14:33:00;;;;;;;5.00;4.60;;;17.60;99.90;;;;;;6248492;23;20505;-70
2021/10/19 14:35:26;;;;;;;5.20;4.80;;;17.60;99.90;;;;;;6248716;23;20756;-70
2021/10/19 14:37:54;;;;;;;5.27;4.87;;;17.50;99.90;;;;;;6247724;23;20411;-70
2021/10/19 14:40:21;;;;;;;7.03;5.00;;;17.50;99.90;;;;;;6247690;22;20411;-69
2021/10/19 14:42:48;;;;;;;5.37;4.87;;;17.50;99.90;;;;;;6248172;23;20422;-70
2021/10/19 14:45:15;;;;;;;7.03;5.50;;;17.50;99.90;;;;;;6247683;23;20411;-70
2021/10/19 14:47:42;;;;;;;6.43;4.83;;;17.50;99.90;;;;;;6247655;23;20415;-70
2021/10/19 14:50:10;;;;;;;5.57;4.60;;;17.60;99.90;;;;;;6248031;23;20434;-70
2021/10/19 14:52:37;;;;;;;5.50;5.10;;;17.60;99.90;;;;;;6248076;22;20430;-70
2021/10/19 14:55:06;;;;;;;9.90;6.30;;;17.70;99.90;;;;;;6248006;23;20473;-70
2021/10/19 14:57:35;;;;;;;7.63;6.13;;;17.70;99.90;;;;;;6249190;23;20764;-70
2021/10/19 15:00:02;;;;;;;5.47;5.03;;;17.70;99.90;;;;;;6249397;23;20415;-70
2021/10/19 15:02:29;;;;;;;5.53;4.97;;;17.80;99.90;;;;;;6247848;22;20759;-70
2021/10/19 15:04:56;;;;;;;5.03;4.63;;;17.70;99.90;;;;;;6248044;23;20418;-70
2021/10/19 15:07:23;;;;;;;5.50;5.00;;;17.80;99.90;;;;;;6248194;23;20521;-70
2021/10/19 15:09:49;;;;;;;5.97;5.30;;;17.70;99.90;;;;;;6248142;23;20414;-70
2021/10/19 15:12:19;;;;;;;5.27;4.83;;;17.70;99.90;;;;;;6248186;22;20430;-70
2021/10/19 15:14:46;;;;;;;6.60;4.53;;;17.70;99.90;;;;;;6248478;23;20435;-70
2021/10/19 15:17:12;;;;;;;5.57;4.90;;;17.70;99.90;;;;;;6248309;23;20411;-70
2021/10/19 15:19:39;;;;;;;5.70;5.10;;;17.70;99.90;;;;;;6247503;23;20918;-70
2021/10/19 15:22:06;;;;;;;5.70;5.20;;;17.70;99.90;;;;;;6247759;22;20434;-70
2021/10/19 15:24:33;;;;;;;6.40;5.80;;;17.70;99.90;;;;;;6247597;23;20910;-70
2021/10/19 15:26:59;;;;;;;6.60;5.17;;;17.70;99.90;;;;;;6247957;23;20415;-70
2021/10/19 15:29:27;;;;;;;5.17;4.67;;;17.70;99.90;;;;;;6249419;23;20856;-70
2021/10/19 15:31:54;;;;;;;6.10;5.20;;;17.70;99.90;;;;;;6249444;22;20430;-70
2021/10/19 15:34:21;;;;;;;5.33;4.83;;;17.70;99.90;;;;;;6247939;23;20431;-70
2021/10/19 15:36:47;;;;;;;5.53;5.03;;;17.70;99.90;;;;;;6247765;23;20418;-70
2021/10/19 15:39:15;;;;;;;8.13;5.30;;;17.70;99.90;;;;;;6247583;23;20410;-70
2021/10/19 15:41:41;;;;;;;5.47;4.83;;;17.80;99.90;;;;;;6247849;22;20513;-70
2021/10/19 15:44:08;;;;;;;6.80;5.20;;;17.80;99.90;;;;;;6248077;23;20457;-70
2021/10/19 15:46:38;;;;;;;6.10;4.77;;;17.80;99.90;;;;;;6247821;23;20417;-70
2021/10/19 15:49:05;;;;;;;9.30;5.83;;;17.90;99.90;;;;;;6247028;23;20414;-70
2021/10/19 15:51:34;;;;;;;5.40;4.90;;;17.90;99.90;;;;;;6247693;22;20438;-71
2021/10/19 15:54:01;;;;;;;5.97;4.60;;;17.90;99.90;;;;;;6247308;23;20943;-70
2021/10/19 15:56:29;;;;;;;5.40;4.90;;;17.90;99.90;;;;;;6247799;23;20415;-70
2021/10/19 15:58:56;;;;;;;6.37;5.10;;;17.90;99.90;;;;;;6247676;23;20411;-70
2021/10/19 16:01:23;;;;;;;6.13;5.10;;;17.90;99.90;;;;;;6247302;22;20446;-70
2021/10/19 16:03:51;;;;;;;5.40;4.33;;;17.80;99.90;;;;;;6247694;23;20411;-71
2021/10/19 16:06:18;;;;;;;5.53;4.60;;;17.80;99.90;;;;;;6247251;23;20899;-70
2021/10/19 16:08:45;;;;;;;5.40;4.90;;;17.80;99.90;;;;;;6247023;23;20410;-70
2021/10/19 16:11:13;;;;;;;6.17;5.27;;;17.80;99.90;;;;;;6247526;22;20500;-70
2021/10/19 16:13:40;;;;;;;7.43;5.63;;;17.70;99.90;;;;;;6247638;23;20418;-71
2021/10/19 16:16:07;;;;;;;5.13;4.67;;;17.60;99.90;;;;;;6247894;23;20446;-70
2021/10/19 16:18:34;;;;;;;5.73;4.93;;;17.60;99.90;;;;;;6247819;23;20411;-70
2021/10/19 16:21:02;;;;;;;5.80;5.10;;;17.60;99.90;;;;;;6247346;22;20438;-70
2021/10/19 16:23:29;;;;;;;6.03;5.17;;;17.50;99.90;;;;;;6247465;23;20411;-70
2021/10/19 16:25:56;;;;;;;6.57;5.93;;;17.50;99.90;;;;;;6247068;23;20407;-70
2021/10/19 16:28:23;;;;;;;9.17;5.80;;;17.50;99.90;;;;;;6247458;23;20411;-70
2021/10/19 16:30:50;;;;;;;7.60;5.10;;;17.50;99.90;;;;;;6246877;22;20437;-70
2021/10/19 16:33:16;;;;;;;6.33;5.70;;;17.50;99.90;;;;;;6246670;23;20744;-71
2021/10/19 16:35:44;;;;;;;7.70;6.17;;;17.50;99.90;;;;;;6247917;23;20958;-70
2021/10/19 16:38:13;;;;;;;7.57;5.60;;;17.40;99.90;;;;;;6247241;23;20399;-70